createdAt,value
2018-12-29T00:02:36.859Z,20.83
2018-12-29T00:05:17.289Z,22.37
2018-12-29T00:07:57.762Z,22.90
2018-12-29T00:10:37.918Z,21.00
2018-12-29T00:13:18.394Z,19.73
2018-12-29T00:15:58.783Z,21.30
2018-12-29T00:18:39.341Z,20.57
2018-12-29T00:21:18.154Z,24.37
2018-12-29T00:24:05.890Z,22.23
2018-12-29T00:26:53.649Z,21.30
2018-12-29T00:29:41.385Z,22.40
2018-12-29T00:32:29.150Z,20.30
2018-12-29T00:35:16.899Z,22.53
2018-12-29T00:38:04.664Z,19.33
2018-12-29T00:40:52.402Z,20.63
2018-12-29T00:43:40.162Z,22.37
2018-12-29T00:46:08.569Z,20.40
2018-12-29T00:48:56.325Z,20.57
2018-12-29T00:51:44.065Z,19.77
2018-12-29T00:54:31.842Z,20.60
2018-12-29T00:57:19.586Z,19.57
2018-12-29T01:00:07.409Z,20.43
2018-12-29T01:02:55.174Z,21.37
2018-12-29T01:05:42.911Z,22.67
2018-12-29T01:11:24.141Z,20.40
2018-12-29T01:14:11.879Z,20.23
2018-12-29T01:16:40.332Z,22.73
2018-12-29T01:19:08.726Z,21.37
2018-12-29T01:21:37.116Z,20.00
2018-12-29T01:24:06.017Z,20.90
2018-12-29T01:26:34.452Z,24.00
2018-12-29T01:29:02.913Z,21.20
2018-12-29T01:31:32.678Z,22.60
2018-12-29T01:34:01.073Z,21.53
2018-12-29T01:36:29.489Z,21.23
2018-12-29T01:38:57.925Z,20.97
2018-12-29T01:41:26.332Z,21.80
2018-12-29T01:43:54.732Z,23.07
2018-12-29T01:46:23.156Z,21.47
2018-12-29T01:48:51.562Z,23.17
2018-12-29T01:51:19.965Z,20.20
2018-12-29T01:53:48.669Z,22.20
2018-12-29T01:56:17.337Z,20.57
2018-12-29T01:58:45.739Z,21.40
2018-12-29T02:01:14.165Z,20.73
2018-12-29T02:03:42.557Z,21.03
2018-12-29T02:06:10.972Z,20.87
2018-12-29T02:08:39.408Z,21.83
2018-12-29T02:11:07.813Z,20.43
2018-12-29T02:13:36.468Z,20.77
2018-12-29T02:16:04.989Z,21.57
2018-12-29T02:18:33.386Z,21.33
2018-12-29T02:21:01.851Z,23.63
2018-12-29T02:23:30.561Z,20.23
2018-12-29T02:25:58.961Z,23.13
2018-12-29T02:28:27.392Z,21.13
2018-12-29T02:30:55.833Z,20.47
2018-12-29T02:33:24.248Z,18.77
2018-12-29T02:35:52.628Z,20.53
2018-12-29T02:38:21.068Z,19.83
2018-12-29T02:40:49.461Z,19.93
2018-12-29T02:43:17.902Z,20.87
2018-12-29T02:45:46.317Z,20.83
2018-12-29T02:48:14.720Z,21.30
2018-12-29T02:50:43.249Z,18.77
2018-12-29T02:53:11.646Z,21.13
2018-12-29T02:55:40.044Z,20.83
2018-12-29T02:58:08.768Z,21.30
2018-12-29T03:00:37.167Z,22.40
2018-12-29T03:03:05.565Z,21.17
2018-12-29T03:05:34.007Z,22.20
2018-12-29T03:08:02.397Z,21.17
2018-12-29T03:10:30.794Z,22.67
2018-12-29T03:12:59.241Z,22.77
2018-12-29T03:15:27.689Z,20.23
2018-12-29T03:17:56.084Z,21.43
2018-12-29T03:20:24.536Z,21.83
2018-12-29T03:22:53.154Z,21.90
2018-12-29T03:25:21.553Z,22.10
2018-12-29T03:27:49.950Z,21.17
2018-12-29T03:30:18.401Z,21.37
2018-12-29T03:32:46.808Z,24.10
2018-12-29T03:35:15.197Z,23.50
2018-12-29T03:37:43.830Z,22.03
2018-12-29T03:40:12.225Z,24.87
2018-12-29T03:42:40.622Z,23.50
2018-12-29T03:45:09.065Z,23.10
2018-12-29T03:47:37.471Z,24.27
2018-12-29T03:50:06.437Z,22.47
2018-12-29T03:52:34.889Z,22.77
2018-12-29T03:55:06.236Z,24.73
2018-12-29T03:57:34.639Z,25.47
2018-12-29T04:00:04.590Z,21.97
2018-12-29T04:02:33.003Z,23.03
2018-12-29T04:05:01.400Z,23.47
2018-12-29T04:07:29.845Z,26.17
2018-12-29T04:09:58.245Z,25.13
2018-12-29T04:12:26.653Z,26.20
2018-12-29T04:14:55.098Z,27.23
2018-12-29T04:17:23.503Z,24.73
2018-12-29T04:19:51.934Z,28.53
2018-12-29T04:22:20.585Z,25.53
2018-12-29T04:24:48.972Z,25.63
2018-12-29T04:27:17.381Z,26.83
2018-12-29T04:29:45.823Z,26.27
2018-12-29T04:32:14.226Z,29.87
2018-12-29T04:34:42.624Z,28.33
2018-12-29T04:37:11.070Z,26.97
2018-12-29T04:39:39.476Z,25.63
2018-12-29T04:42:07.872Z,28.80
2018-12-29T04:44:36.542Z,30.20
2018-12-29T04:47:04.985Z,30.30
2018-12-29T04:49:33.390Z,30.97
2018-12-29T04:52:01.834Z,31.00
2018-12-29T04:54:30.308Z,30.53
2018-12-29T04:56:58.712Z,32.43
2018-12-29T04:59:27.153Z,29.80
2018-12-29T05:01:55.577Z,28.67
2018-12-29T05:04:23.978Z,30.60
2018-12-29T05:06:52.449Z,31.53
2018-12-29T05:09:20.851Z,28.63
2018-12-29T05:11:49.280Z,33.07
2018-12-29T05:14:17.742Z,32.93
2018-12-29T05:16:46.149Z,32.40
2018-12-29T05:19:14.542Z,34.97
2018-12-29T05:21:42.984Z,33.00
2018-12-29T05:24:11.391Z,34.00
2018-12-29T05:26:39.792Z,32.57
2018-12-29T05:29:08.229Z,32.37
2018-12-29T05:31:36.632Z,33.93
2018-12-29T05:34:05.077Z,32.80
2018-12-29T05:36:33.514Z,32.03
2018-12-29T05:39:01.908Z,31.03
2018-12-29T05:41:30.834Z,31.33
2018-12-29T05:43:59.228Z,34.03
2018-12-29T05:46:27.626Z,31.93
2018-12-29T05:48:56.078Z,34.70
2018-12-29T05:51:24.558Z,34.33
2018-12-29T05:53:53.085Z,33.07
2018-12-29T05:56:21.484Z,32.20
2018-12-29T05:58:50.005Z,33.80
2018-12-29T06:01:18.422Z,34.70
2018-12-29T06:03:46.828Z,33.20
2018-12-29T06:06:15.257Z,33.17
2018-12-29T06:08:43.661Z,33.73
2018-12-29T06:11:12.072Z,31.90
2018-12-29T06:13:40.508Z,31.47
2018-12-29T06:16:08.908Z,32.77
2018-12-29T06:18:37.314Z,34.10
2018-12-29T06:21:05.897Z,31.50
2018-12-29T06:23:34.399Z,30.83
2018-12-29T06:26:02.782Z,30.97
2018-12-29T06:28:31.215Z,32.13
2018-12-29T06:30:59.857Z,31.50
2018-12-29T06:33:28.263Z,32.00
2018-12-29T06:35:56.661Z,31.90
2018-12-29T06:38:25.132Z,31.77
2018-12-29T06:40:53.598Z,29.97
2018-12-29T06:43:21.993Z,33.67
2018-12-29T06:45:50.472Z,33.97
2018-12-29T06:48:18.865Z,32.83
2018-12-29T06:50:47.325Z,33.20
2018-12-29T06:53:15.727Z,33.47
2018-12-29T06:55:44.121Z,32.37
2018-12-29T06:58:12.566Z,30.63
2018-12-29T07:00:40.974Z,31.97
2018-12-29T07:03:09.386Z,32.80
2018-12-29T07:05:37.821Z,33.27
2018-12-29T07:08:06.233Z,37.27
2018-12-29T07:10:34.625Z,29.53
2018-12-29T07:13:03.060Z,32.77
2018-12-29T07:19:36.235Z,28.93
2018-12-29T07:22:23.963Z,29.87
2018-12-29T07:25:11.734Z,28.27
2018-12-29T07:27:59.469Z,30.37
2018-12-29T07:30:47.260Z,26.87
2018-12-29T07:36:43.590Z,28.60
2018-12-29T07:39:31.326Z,29.17
2018-12-29T07:45:12.462Z,28.67
2018-12-29T07:48:00.250Z,28.60
2018-12-29T07:50:47.985Z,28.20
2018-12-29T07:53:35.767Z,27.53
2018-12-29T07:56:16.658Z,29.93
2018-12-29T07:58:57.378Z,28.07
2018-12-29T08:01:37.949Z,30.77
2018-12-29T08:04:18.636Z,28.23
2018-12-29T08:06:59.210Z,30.23
2018-12-29T08:09:39.936Z,27.33
2018-12-29T08:12:20.534Z,29.17
2018-12-29T08:15:01.608Z,29.20
2018-12-29T08:17:42.550Z,30.63
2018-12-29T08:20:23.450Z,32.20
2018-12-29T08:23:04.106Z,33.13
2018-12-29T08:25:44.436Z,32.27
2018-12-29T08:28:23.230Z,33.50
2018-12-29T08:31:11.077Z,30.60
2018-12-29T08:33:58.813Z,31.17
2018-12-29T08:39:39.955Z,29.03
2018-12-29T08:42:27.747Z,30.90
2018-12-29T08:45:15.487Z,35.83
2018-12-29T08:48:03.265Z,28.40
2018-12-29T08:50:51.010Z,28.03
2018-12-29T08:53:19.440Z,29.23
2018-12-29T08:55:47.886Z,29.77
2018-12-29T08:58:35.621Z,28.67
2018-12-29T09:01:23.408Z,29.67
2018-12-29T09:04:11.153Z,29.70
2018-12-29T09:06:58.937Z,29.73
2018-12-29T09:09:46.670Z,31.47
2018-12-29T09:12:34.457Z,28.70
2018-12-29T09:15:22.204Z,29.27
2018-12-29T09:18:09.984Z,28.23
2018-12-29T09:20:57.721Z,28.83
2018-12-29T09:23:45.505Z,28.53
2018-12-29T09:26:33.243Z,26.93
2018-12-29T09:29:21.014Z,30.43
2018-12-29T09:41:02.578Z,28.33
2018-12-29T09:46:44.218Z,27.20
2018-12-29T09:49:31.993Z,26.90
2018-12-29T09:52:19.734Z,26.87
2018-12-29T09:55:07.518Z,27.37
2018-12-29T09:57:55.263Z,27.17
2018-12-29T10:00:43.041Z,27.43
2018-12-29T10:09:30.737Z,25.70
2018-12-29T10:12:18.473Z,26.30
2018-12-29T10:15:06.534Z,23.97
2018-12-29T10:17:54.283Z,24.60
2018-12-29T10:20:34.562Z,24.83
2018-12-29T10:23:15.585Z,24.43
2018-12-29T10:25:55.946Z,25.57
2018-12-29T10:28:36.884Z,23.73
2018-12-29T10:31:17.802Z,25.87
2018-12-29T10:33:59.505Z,26.70
2018-12-29T10:36:39.866Z,25.33
2018-12-29T10:39:20.143Z,25.40
2018-12-29T10:42:08.035Z,25.47
2018-12-29T10:47:49.093Z,25.43
2018-12-29T10:50:36.875Z,25.17
2018-12-29T10:53:24.609Z,23.23
2018-12-29T10:56:12.387Z,24.83
2018-12-29T10:59:00.129Z,24.80
2018-12-29T11:01:47.902Z,23.23
2018-12-29T11:10:23.024Z,25.27
2018-12-29T11:13:10.824Z,25.00
2018-12-29T11:15:58.562Z,23.67
2018-12-29T11:18:46.345Z,23.63
2018-12-29T11:21:34.101Z,24.23
2018-12-29T11:24:21.884Z,24.10
2018-12-29T11:27:09.642Z,24.30
2018-12-29T11:29:57.451Z,26.63
2018-12-29T11:32:45.215Z,23.80
2018-12-29T11:38:26.549Z,22.50
2018-12-29T11:41:07.477Z,24.33
2018-12-29T11:43:46.658Z,22.93
2018-12-29T11:46:34.426Z,23.70
2018-12-29T11:49:22.215Z,23.90
2018-12-29T11:52:09.958Z,21.30
2018-12-29T11:54:59.480Z,23.77
2018-12-29T11:57:47.225Z,23.30
2018-12-29T12:03:30.823Z,24.37
2018-12-29T12:06:18.552Z,24.67
2018-12-29T12:09:06.693Z,25.47
2018-12-29T12:11:54.434Z,22.73
2018-12-29T12:14:42.210Z,21.47
2018-12-29T12:17:29.947Z,23.37
2018-12-29T12:20:17.717Z,22.90
2018-12-29T12:23:07.173Z,22.73
2018-12-29T12:25:54.967Z,21.17
2018-12-29T12:28:42.705Z,22.57
2018-12-29T12:31:30.485Z,20.93
2018-12-29T12:34:18.232Z,20.63
2018-12-29T12:37:06.087Z,22.47
2018-12-29T12:39:53.821Z,21.83
2018-12-29T12:45:27.790Z,20.33
2018-12-29T12:48:08.987Z,18.57
2018-12-29T12:50:49.626Z,19.10
2018-12-29T12:53:30.173Z,21.77
2018-12-29T12:56:10.894Z,19.90
2018-12-29T12:58:51.582Z,20.60
2018-12-29T13:01:32.490Z,19.67
2018-12-29T13:04:13.098Z,19.17
2018-12-29T13:06:53.297Z,19.83
2018-12-29T13:09:34.102Z,20.37
2018-12-29T13:12:14.845Z,18.80
2018-12-29T13:14:55.381Z,19.23
2018-12-29T13:17:23.789Z,19.37
2018-12-29T13:19:52.285Z,19.70
2018-12-29T13:22:20.731Z,19.47
2018-12-29T13:24:49.153Z,20.37
2018-12-29T13:27:17.613Z,19.00
2018-12-29T13:29:46.176Z,19.37
2018-12-29T13:32:14.750Z,17.87
2018-12-29T13:34:43.143Z,19.53
2018-12-29T13:37:11.589Z,18.17
2018-12-29T13:39:40.001Z,18.37
2018-12-29T13:42:08.396Z,15.00
2018-12-29T13:44:36.949Z,13.53
2018-12-29T13:47:05.341Z,12.33
2018-12-29T13:49:33.786Z,11.63
2018-12-29T13:52:02.256Z,12.43
2018-12-29T13:54:30.655Z,11.87
2018-12-29T13:56:59.062Z,11.13
2018-12-29T13:59:27.523Z,12.53
2018-12-29T14:01:55.919Z,12.70
2018-12-29T14:04:24.319Z,12.33
2018-12-29T14:06:53.071Z,12.03
2018-12-29T14:09:21.477Z,11.90
2018-12-29T14:11:50.206Z,12.13
2018-12-29T14:14:18.697Z,12.63
2018-12-29T14:16:47.095Z,13.73
2018-12-29T14:19:15.495Z,13.23
2018-12-29T14:21:43.954Z,13.50
2018-12-29T14:24:12.353Z,13.53
2018-12-29T14:26:40.761Z,13.97
2018-12-29T14:29:09.209Z,12.87
2018-12-29T14:31:38.588Z,15.37
2018-12-29T14:34:06.990Z,13.37
2018-12-29T14:36:35.460Z,13.10
2018-12-29T14:39:05.574Z,12.57
2018-12-29T14:41:33.990Z,15.57
2018-12-29T14:44:02.610Z,13.40
2018-12-29T14:46:31.081Z,14.43
2018-12-29T14:48:59.521Z,15.47
2018-12-29T14:51:28.329Z,15.37
2018-12-29T14:53:56.780Z,14.53
2018-12-29T14:56:25.180Z,14.77
2018-12-29T14:58:53.573Z,14.70
2018-12-29T15:01:22.223Z,15.20
2018-12-29T15:03:51.010Z,12.93
2018-12-29T15:06:19.400Z,13.20
2018-12-29T15:08:47.874Z,14.03
2018-12-29T15:11:16.282Z,14.27
2018-12-29T15:13:44.689Z,14.67
2018-12-29T15:16:13.136Z,12.87
2018-12-29T15:18:43.620Z,14.93
2018-12-29T15:21:11.683Z,14.00
2018-12-29T15:23:40.133Z,13.47
2018-12-29T15:26:08.985Z,14.87
2018-12-29T15:28:37.437Z,14.40
2018-12-29T15:31:06.127Z,15.53
2018-12-29T15:33:34.921Z,14.87
2018-12-29T15:36:03.325Z,14.27
2018-12-29T15:38:31.964Z,13.90
2018-12-29T15:41:00.654Z,13.43
2018-12-29T15:43:29.070Z,16.00
2018-12-29T15:45:57.689Z,17.33
2018-12-29T15:48:26.290Z,14.30
2018-12-29T15:50:54.754Z,14.70
2018-12-29T15:53:23.265Z,14.33
2018-12-29T15:55:51.685Z,16.93
2018-12-29T15:58:20.365Z,13.97
2018-12-29T16:00:48.810Z,16.33
2018-12-29T16:03:17.219Z,14.07
2018-12-29T16:05:46.036Z,15.27
2018-12-29T16:08:14.505Z,13.87
2018-12-29T16:10:42.925Z,15.60
2018-12-29T16:13:11.378Z,13.13
2018-12-29T16:15:39.783Z,14.07
2018-12-29T16:18:08.252Z,15.47
2018-12-29T16:20:36.781Z,13.93
2018-12-29T16:23:05.263Z,13.93
2018-12-29T16:25:33.733Z,11.77
2018-12-29T16:28:02.198Z,14.83
2018-12-29T16:30:30.975Z,12.50
2018-12-29T16:32:59.748Z,14.37
2018-12-29T16:35:28.316Z,16.10
2018-12-29T16:37:57.209Z,17.17
2018-12-29T16:40:25.602Z,14.53
2018-12-29T16:42:54.023Z,12.50
2018-12-29T16:45:22.930Z,17.00
2018-12-29T16:47:51.364Z,14.13
2018-12-29T16:50:19.816Z,16.27
2018-12-29T16:52:48.238Z,16.27
2018-12-29T16:55:16.699Z,16.37
2018-12-29T16:57:45.311Z,15.70
2018-12-29T17:00:13.814Z,16.47
2018-12-29T17:02:42.225Z,20.20
2018-12-29T17:05:10.956Z,17.10
2018-12-29T17:07:39.349Z,16.10
2018-12-29T17:10:07.744Z,16.60
2018-12-29T17:12:36.991Z,17.27
2018-12-29T17:15:05.956Z,19.07
2018-12-29T17:17:34.437Z,18.20
2018-12-29T17:20:02.874Z,17.63
2018-12-29T17:22:31.741Z,16.43
2018-12-29T17:25:00.200Z,16.50
2018-12-29T17:27:28.603Z,17.07
2018-12-29T17:29:57.373Z,19.23
2018-12-29T17:32:25.890Z,19.03
2018-12-29T17:34:55.618Z,16.00
2018-12-29T17:37:24.030Z,20.43
2018-12-29T17:39:52.540Z,20.83
2018-12-29T17:42:21.376Z,18.93
2018-12-29T17:44:49.772Z,18.57
2018-12-29T17:47:18.182Z,19.40
2018-12-29T17:49:46.625Z,20.03
2018-12-29T17:52:15.022Z,21.17
2018-12-29T17:54:43.426Z,20.57
2018-12-29T17:57:11.885Z,19.30
2018-12-29T17:59:40.290Z,19.87
2018-12-29T18:02:08.789Z,18.93
2018-12-29T18:04:37.737Z,19.63
2018-12-29T18:07:06.190Z,20.20
2018-12-29T18:09:34.702Z,20.87
2018-12-29T18:12:03.529Z,20.30
2018-12-29T18:14:31.930Z,20.50
2018-12-29T18:17:00.411Z,18.40
2018-12-29T18:19:30.854Z,19.67
2018-12-29T18:21:59.438Z,17.93
2018-12-29T18:24:27.850Z,17.47
2018-12-29T18:26:56.356Z,18.37
2018-12-29T18:29:24.755Z,16.40
2018-12-29T18:31:53.573Z,15.73
2018-12-29T18:34:21.967Z,16.03
2018-12-29T18:36:50.382Z,14.23
2018-12-29T18:39:18.890Z,13.50
2018-12-29T18:41:47.381Z,13.67
2018-12-29T18:44:15.821Z,12.07
2018-12-29T18:46:44.646Z,14.73
2018-12-29T18:49:13.049Z,13.47
2018-12-29T18:51:41.745Z,12.43
2018-12-29T18:54:10.203Z,14.00
2018-12-29T18:56:45.363Z,11.83
2018-12-29T18:59:08.804Z,13.13
2018-12-29T19:01:37.253Z,14.87
2018-12-29T19:04:05.653Z,11.43
2018-12-29T19:06:34.121Z,11.27
2018-12-29T19:09:02.577Z,8.63
2018-12-29T19:11:31.574Z,8.50
2018-12-29T19:14:01.347Z,6.83
2018-12-29T19:16:30.291Z,7.27
2018-12-29T19:19:18.229Z,6.83
2018-12-29T19:22:06.059Z,8.07
2018-12-29T19:24:53.801Z,7.53
2018-12-29T19:30:35.330Z,7.30
2018-12-29T19:33:23.478Z,9.10
2018-12-29T19:36:12.934Z,8.73
2018-12-29T19:47:40.472Z,9.70
2018-12-29T19:50:09.312Z,10.17
2018-12-29T19:52:57.100Z,10.00
2018-12-29T19:55:44.839Z,10.73
2018-12-29T20:01:26.442Z,11.80
2018-12-29T20:04:16.113Z,11.83
2018-12-29T20:07:03.854Z,13.03
2018-12-29T20:09:51.634Z,14.63
2018-12-29T20:12:39.379Z,12.10
2018-12-29T20:18:20.399Z,13.07
2018-12-29T20:21:08.193Z,13.90
2018-12-29T20:23:55.942Z,14.07
2018-12-29T20:26:43.726Z,15.37
2018-12-29T20:29:31.462Z,15.60
2018-12-29T20:32:19.250Z,17.20
2018-12-29T20:35:06.979Z,18.90
2018-12-29T20:37:54.761Z,19.30
2018-12-29T20:40:42.502Z,18.07
2018-12-29T20:43:30.283Z,16.20
2018-12-29T20:46:18.027Z,17.20
2018-12-29T20:51:58.907Z,18.67
2018-12-29T20:54:46.703Z,18.83
2018-12-29T21:00:43.077Z,18.67
2018-12-29T21:03:30.819Z,19.23
2018-12-29T21:06:18.605Z,18.10
2018-12-29T21:09:06.419Z,19.00
2018-12-29T21:14:40.629Z,21.43
2018-12-29T21:17:21.026Z,19.20
2018-12-29T21:20:01.704Z,19.90
2018-12-29T21:22:42.417Z,21.90
2018-12-29T21:25:22.808Z,21.00
2018-12-29T21:28:03.856Z,18.80
2018-12-29T21:30:44.230Z,21.23
2018-12-29T21:33:24.858Z,22.97
2018-12-29T21:38:45.681Z,19.63
2018-12-29T21:41:14.128Z,21.40
2018-12-29T21:43:42.570Z,18.23
2018-12-29T21:46:30.356Z,17.57
2018-12-29T21:49:18.134Z,19.23
2018-12-29T21:52:07.598Z,21.23
2018-12-29T21:57:48.758Z,22.60
2018-12-29T22:00:36.497Z,17.10
2018-12-29T22:03:04.937Z,20.10
2018-12-29T22:05:52.682Z,17.13
2018-12-29T22:08:40.465Z,16.03
2018-12-29T22:11:29.922Z,16.73
2018-12-29T22:14:17.697Z,15.90
2018-12-29T22:17:07.155Z,14.27
2018-12-29T22:19:54.961Z,19.13
2018-12-29T22:22:42.707Z,13.67
2018-12-29T22:25:30.488Z,13.87
2018-12-29T22:28:18.239Z,19.20
2018-12-29T22:31:06.030Z,16.70
2018-12-29T22:33:47.733Z,13.77
2018-12-29T22:36:27.941Z,15.20
2018-12-29T22:39:08.750Z,17.43
2018-12-29T22:41:49.095Z,18.43
2018-12-29T22:44:30.090Z,17.97
2018-12-29T22:47:10.447Z,13.50
2018-12-29T22:49:51.486Z,19.07
2018-12-29T22:52:32.440Z,12.77
2018-12-29T22:55:13.086Z,15.20
2018-12-29T22:57:53.765Z,13.47
2018-12-29T23:00:36.333Z,18.50
2018-12-29T23:03:17.431Z,20.30
2018-12-29T23:05:57.816Z,11.00
2018-12-29T23:08:36.529Z,13.63
2018-12-29T23:11:24.678Z,17.17
2018-12-29T23:13:53.076Z,15.43
2018-12-29T23:16:21.610Z,19.23
2018-12-29T23:19:11.101Z,13.60
2018-12-29T23:21:58.843Z,11.93
2018-12-29T23:24:46.630Z,17.10
2018-12-29T23:27:34.365Z,15.17
2018-12-29T23:30:22.226Z,9.93
2018-12-29T23:33:11.679Z,11.83
2018-12-29T23:35:59.558Z,14.10
2018-12-29T23:38:47.359Z,11.30
2018-12-29T23:44:28.229Z,16.13
2018-12-29T23:47:15.968Z,11.97
2018-12-29T23:49:56.482Z,10.53
2018-12-29T23:52:37.466Z,12.27
2018-12-29T23:55:18.226Z,15.93
2018-12-29T23:57:58.893Z,10.13
